Time;durP1;ratioP1;P1;durP2;ratioP2;P2;SDS_P1;SDS_P2;PMS_P1;PMS_P2;Temp;Humidity;BMP_temperature;BMP_pressure;BME280_temperature;BME280_humidity;BME280_pressure;Samples;Min_cycle;Max_cycle;Signal;HPM_P1;HPM_P2
2022/01/26 00:06:08;;;;;;;104.30;31.65;;;;;;;;;;4991688;28;107549;-69
2022/01/26 00:08:36;;;;;;;98.18;30.63;;;;;;;;;;4971897;28;108380;-68
2022/01/26 00:11:03;;;;;;;97.70;30.20;;;;;;;;;;4972010;28;108687;-68
2022/01/26 00:13:29;;;;;;;95.30;30.17;;;;;;;;;;4989745;28;108735;-69
2022/01/26 00:15:57;;;;;;;99.18;29.85;;;;;;;;;;4988726;28;107430;-68
2022/01/26 00:18:29;;;;;;;102.10;31.23;;;;;;;;;;4985876;28;106877;-68
2022/01/26 00:21:03;;;;;;;92.10;29.67;;;;;;;;;;4989800;28;106340;-68
2022/01/26 00:26:10;;;;;;;93.35;29.33;;;;;;;;;;4971082;28;109371;-69
2022/01/26 00:39:37;;;;;;;97.70;30.52;;;;;;;;;;4982430;28;107296;-69
2022/01/26 00:42:04;;;;;;;91.15;28.98;;;;;;;;;;4989304;28;106525;-70
2022/01/26 00:44:39;;;;;;;92.72;29.42;;;;;;;;;;4989592;28;106046;-69
2022/01/26 00:47:05;;;;;;;94.20;28.80;;;;;;;;;;4987734;28;108146;-69
2022/01/26 00:49:32;;;;;;;90.20;28.08;;;;;;;;;;4984033;28;105964;-68
2022/01/26 00:51:59;;;;;;;90.03;30.48;;;;;;;;;;4974121;28;107367;-68
2022/01/26 00:54:27;;;;;;;100.70;32.22;;;;;;;;;;4988963;28;107413;-69
2022/01/26 00:56:53;;;;;;;105.45;30.63;;;;;;;;;;4989819;28;106409;-69
2022/01/26 00:59:20;;;;;;;97.82;29.95;;;;;;;;;;4969635;28;107018;-68
2022/01/26 01:01:46;;;;;;;107.00;30.05;;;;;;;;;;4988915;28;107553;-69
2022/01/26 01:04:13;;;;;;;97.63;31.13;;;;;;;;;;4987683;28;106903;-69
2022/01/26 01:06:48;;;;;;;99.18;31.45;;;;;;;;;;4988427;28;106961;-69
2022/01/26 01:09:16;;;;;;;92.60;29.00;;;;;;;;;;4969949;28;106844;-69
2022/01/26 01:11:42;;;;;;;93.28;29.90;;;;;;;;;;4986267;28;106693;-68
2022/01/26 01:14:10;;;;;;;96.15;30.90;;;;;;;;;;4991920;28;106212;-69
2022/01/26 01:16:37;;;;;;;99.60;31.02;;;;;;;;;;4988447;28;106584;-69
2022/01/26 01:27:04;;;;;;;104.20;31.58;;;;;;;;;;4964766;28;107368;-69
2022/01/26 01:29:44;;;;;;;93.50;29.13;;;;;;;;;;4970812;28;106029;-69
2022/01/26 01:32:16;;;;;;;101.55;30.58;;;;;;;;;;4982151;28;106366;-69
2022/01/26 01:34:43;;;;;;;101.28;30.73;;;;;;;;;;4987186;28;107125;-69
2022/01/26 01:37:13;;;;;;;101.32;29.10;;;;;;;;;;4973717;28;106790;-68
2022/01/26 01:39:39;;;;;;;106.30;32.78;;;;;;;;;;4988572;28;107488;-69
2022/01/26 01:42:06;;;;;;;108.53;31.15;;;;;;;;;;4987578;28;106575;-69
2022/01/26 01:44:33;;;;;;;108.32;31.13;;;;;;;;;;4971502;28;108409;-69
2022/01/26 01:47:00;;;;;;;102.00;30.05;;;;;;;;;;4988029;28;108251;-69
2022/01/26 01:49:26;;;;;;;100.00;29.55;;;;;;;;;;4969079;28;106900;-69
2022/01/26 01:51:58;;;;;;;99.35;30.27;;;;;;;;;;4989582;28;106453;-69
2022/01/26 01:54:24;;;;;;;102.95;31.65;;;;;;;;;;4985624;28;107437;-69
2022/01/26 01:56:55;;;;;;;110.80;32.17;;;;;;;;;;4986952;28;106308;-69
2022/01/26 01:59:27;;;;;;;105.35;32.83;;;;;;;;;;4990903;28;106547;-69
2022/01/26 02:01:54;;;;;;;102.80;30.20;;;;;;;;;;4963487;28;106556;-68
2022/01/26 02:04:21;;;;;;;107.03;31.60;;;;;;;;;;4952531;28;106975;-68
2022/01/26 02:06:47;;;;;;;106.07;32.95;;;;;;;;;;4987558;28;106766;-68
2022/01/26 02:09:14;;;;;;;105.65;33.10;;;;;;;;;;4983304;28;107113;-69
2022/01/26 02:11:52;;;;;;;100.75;32.28;;;;;;;;;;4987262;28;108022;-70
2022/01/26 02:14:25;;;;;;;110.30;32.22;;;;;;;;;;4986095;28;107416;-69
2022/01/26 02:17:09;;;;;;;98.70;30.25;;;;;;;;;;4965818;28;106805;-69
2022/01/26 02:52:49;;;;;;;112.65;34.75;;;;;;;;;;4987260;28;105896;-69
2022/01/26 02:55:34;;;;;;;105.85;35.03;;;;;;;;;;4973202;28;107853;-69
2022/01/26 02:58:44;;;;;;;108.10;33.97;;;;;;;;;;4990783;28;106215;-69
2022/01/26 03:03:39;;;;;;;114.07;33.70;;;;;;;;;;4989473;28;106781;-69
2022/01/26 03:06:11;;;;;;;110.65;34.65;;;;;;;;;;4989749;28;107537;-69
2022/01/26 03:08:43;;;;;;;108.88;33.75;;;;;;;;;;4974914;28;107582;-69
2022/01/26 03:11:12;;;;;;;109.55;33.17;;;;;;;;;;4989831;28;106666;-69
2022/01/26 03:13:45;;;;;;;114.40;34.10;;;;;;;;;;4972852;28;107359;-69
2022/01/26 03:16:18;;;;;;;108.10;33.17;;;;;;;;;;4988475;28;106775;-69
2022/01/26 03:19:16;;;;;;;113.32;33.95;;;;;;;;;;4989232;28;106474;-69
2022/01/26 03:22:04;;;;;;;111.13;34.83;;;;;;;;;;4989699;28;106822;-69
2022/01/26 03:30:02;;;;;;;112.80;33.65;;;;;;;;;;4990065;28;108149;-69
2022/01/26 03:35:14;;;;;;;117.07;34.60;;;;;;;;;;4989361;28;108406;-72
2022/01/26 03:37:49;;;;;;;119.32;36.10;;;;;;;;;;4973820;28;106217;-69
2022/01/26 03:40:16;;;;;;;110.95;33.70;;;;;;;;;;4989579;28;106475;-70
2022/01/26 03:42:42;;;;;;;122.80;36.47;;;;;;;;;;4989865;28;106680;-69
2022/01/26 03:45:09;;;;;;;122.57;36.85;;;;;;;;;;4988222;28;106755;-69
2022/01/26 03:47:35;;;;;;;115.07;35.60;;;;;;;;;;4988667;28;107648;-70
2022/01/26 03:50:03;;;;;;;119.70;36.08;;;;;;;;;;4989343;28;106786;-69
2022/01/26 03:52:29;;;;;;;110.10;33.97;;;;;;;;;;4988697;28;106723;-69
2022/01/26 03:54:56;;;;;;;117.13;35.58;;;;;;;;;;4990921;28;106814;-69
2022/01/26 03:57:22;;;;;;;116.03;36.25;;;;;;;;;;4987557;28;106626;-69
2022/01/26 03:59:48;;;;;;;114.60;34.47;;;;;;;;;;4972381;28;107849;-69
2022/01/26 04:02:15;;;;;;;111.07;34.95;;;;;;;;;;4970811;28;106704;-68
2022/01/26 04:04:48;;;;;;;115.35;35.85;;;;;;;;;;4988518;28;106217;-69
2022/01/26 04:07:14;;;;;;;112.22;35.15;;;;;;;;;;4988350;28;106921;-68
2022/01/26 04:09:41;;;;;;;117.43;35.63;;;;;;;;;;4981721;28;105921;-69
2022/01/26 04:12:07;;;;;;;118.07;36.25;;;;;;;;;;4989261;28;106604;-71
2022/01/26 04:14:35;;;;;;;119.75;35.72;;;;;;;;;;4988914;28;107289;-69
2022/01/26 04:17:01;;;;;;;116.38;35.05;;;;;;;;;;4993941;28;106749;-68
2022/01/26 04:19:31;;;;;;;110.70;36.13;;;;;;;;;;4970589;28;107351;-69
2022/01/26 04:27:22;;;;;;;112.32;34.83;;;;;;;;;;4988784;28;107418;-68
2022/01/26 04:29:47;;;;;;;110.50;36.85;;;;;;;;;;4970302;28;106175;-68
2022/01/26 04:32:15;;;;;;;116.15;35.95;;;;;;;;;;4987981;28;106568;-69
2022/01/26 04:34:42;;;;;;;121.40;37.22;;;;;;;;;;4971626;28;106367;-69
2022/01/26 04:37:25;;;;;;;108.25;35.88;;;;;;;;;;4993254;28;107388;-69
2022/01/26 04:40:05;;;;;;;117.35;35.80;;;;;;;;;;4989365;28;106469;-69
2022/01/26 04:42:52;;;;;;;114.88;34.85;;;;;;;;;;4989034;28;105535;-68
2022/01/26 04:45:18;;;;;;;112.47;36.25;;;;;;;;;;4985802;28;106080;-69
2022/01/26 04:47:45;;;;;;;119.78;36.65;;;;;;;;;;4988105;28;107361;-70
2022/01/26 04:50:12;;;;;;;128.30;38.13;;;;;;;;;;4988768;28;106812;-69
2022/01/26 04:52:39;;;;;;;112.13;37.08;;;;;;;;;;4986485;28;107435;-69
2022/01/26 04:55:05;;;;;;;114.55;37.13;;;;;;;;;;4988187;28;106834;-70
2022/01/26 04:57:32;;;;;;;117.03;36.53;;;;;;;;;;4971207;28;106574;-69
2022/01/26 04:59:58;;;;;;;116.95;37.35;;;;;;;;;;4971747;28;106918;-68
2022/01/26 05:02:24;;;;;;;110.93;35.35;;;;;;;;;;4969561;28;106333;-69
2022/01/26 05:04:51;;;;;;;112.60;35.85;;;;;;;;;;4988188;28;106623;-68
2022/01/26 05:07:17;;;;;;;113.63;36.13;;;;;;;;;;4988504;28;106364;-69
2022/01/26 05:09:44;;;;;;;123.13;38.10;;;;;;;;;;4969887;28;108012;-69
2022/01/26 05:12:12;;;;;;;119.43;38.05;;;;;;;;;;4954332;28;108824;-69
2022/01/26 05:14:41;;;;;;;124.60;38.42;;;;;;;;;;4988758;28;107943;-69
2022/01/26 05:17:07;;;;;;;122.40;38.83;;;;;;;;;;4988581;28;106458;-71
2022/01/26 05:19:34;;;;;;;120.22;38.83;;;;;;;;;;4988390;28;106774;-68
2022/01/26 05:22:00;;;;;;;123.60;36.92;;;;;;;;;;4987775;28;107637;-68
2022/01/26 05:24:27;;;;;;;120.68;36.80;;;;;;;;;;4985772;28;106168;-69
2022/01/26 05:26:53;;;;;;;120.80;38.97;;;;;;;;;;4987552;28;107543;-69
2022/01/26 05:29:19;;;;;;;119.60;36.90;;;;;;;;;;4987872;28;105661;-68
2022/01/26 05:31:46;;;;;;;122.15;37.47;;;;;;;;;;4969659;28;107596;-68
2022/01/26 05:34:12;;;;;;;124.15;37.58;;;;;;;;;;4977850;28;107650;-69
2022/01/26 05:36:39;;;;;;;124.03;38.13;;;;;;;;;;4970438;28;107765;-69
2022/01/26 05:39:05;;;;;;;122.82;39.58;;;;;;;;;;4987728;28;106534;-72
2022/01/26 05:41:32;;;;;;;123.20;36.95;;;;;;;;;;4988300;28;106235;-68
2022/01/26 05:43:58;;;;;;;132.35;38.33;;;;;;;;;;4989322;28;105673;-68
2022/01/26 05:46:38;;;;;;;128.82;38.45;;;;;;;;;;4969119;28;107058;-68
2022/01/26 05:49:05;;;;;;;130.93;37.65;;;;;;;;;;4987801;28;106491;-70
2022/01/26 05:51:33;;;;;;;131.80;40.03;;;;;;;;;;4988401;28;106806;-69
2022/01/26 05:54:01;;;;;;;131.48;38.63;;;;;;;;;;4987744;28;107094;-70
2022/01/26 05:56:29;;;;;;;128.32;37.90;;;;;;;;;;4964984;28;106136;-67
2022/01/26 05:58:55;;;;;;;130.60;39.55;;;;;;;;;;4979904;28;106395;-68
2022/01/26 06:01:22;;;;;;;125.72;38.78;;;;;;;;;;4951596;28;109591;-68
2022/01/26 06:03:48;;;;;;;136.57;41.42;;;;;;;;;;4960122;28;105860;-70
2022/01/26 06:06:18;;;;;;;140.65;41.95;;;;;;;;;;4989841;28;105712;-68
2022/01/26 06:08:44;;;;;;;121.93;38.80;;;;;;;;;;4956240;28;106165;-71
2022/01/26 06:11:11;;;;;;;135.48;38.78;;;;;;;;;;4977451;28;106874;-68
2022/01/26 06:13:37;;;;;;;138.85;39.40;;;;;;;;;;4963071;28;107409;-69
2022/01/26 06:16:04;;;;;;;135.07;40.05;;;;;;;;;;4987924;28;106502;-70
2022/01/26 06:18:31;;;;;;;148.25;40.10;;;;;;;;;;4985666;28;107079;-70
2022/01/26 06:20:57;;;;;;;145.45;40.00;;;;;;;;;;4980686;28;107788;-69
2022/01/26 06:23:25;;;;;;;148.63;40.63;;;;;;;;;;4983693;28;106346;-68
2022/01/26 06:25:54;;;;;;;141.60;40.95;;;;;;;;;;4980078;28;106378;-70
2022/01/26 06:28:21;;;;;;;138.50;38.53;;;;;;;;;;4972471;28;106426;-69
2022/01/26 06:30:49;;;;;;;142.18;41.38;;;;;;;;;;4969626;28;106776;-68
2022/01/26 06:33:16;;;;;;;146.35;41.63;;;;;;;;;;4986123;28;106354;-68
2022/01/26 06:35:43;;;;;;;142.63;39.00;;;;;;;;;;4968274;28;106617;-68
2022/01/26 06:38:09;;;;;;;147.73;42.08;;;;;;;;;;4983147;28;106907;-69
2022/01/26 06:40:36;;;;;;;148.05;41.80;;;;;;;;;;4987171;28;107572;-71
2022/01/26 06:43:09;;;;;;;142.07;40.70;;;;;;;;;;4970341;28;106256;-68
2022/01/26 06:45:40;;;;;;;144.02;38.80;;;;;;;;;;4986199;28;106927;-72
2022/01/26 06:50:52;;;;;;;146.02;38.75;;;;;;;;;;4968924;28;106703;-67
2022/01/26 06:53:18;;;;;;;142.48;39.88;;;;;;;;;;4979277;28;106357;-68
2022/01/26 06:55:45;;;;;;;150.20;40.83;;;;;;;;;;4986522;28;106106;-68
2022/01/26 06:58:11;;;;;;;145.43;40.28;;;;;;;;;;4986125;28;106731;-68
2022/01/26 07:00:38;;;;;;;148.32;39.13;;;;;;;;;;4968014;28;109200;-69
2022/01/26 07:03:04;;;;;;;142.60;40.40;;;;;;;;;;4984779;28;107538;-68
2022/01/26 07:05:31;;;;;;;152.00;40.40;;;;;;;;;;4979558;28;106774;-69
2022/01/26 07:07:57;;;;;;;154.73;39.90;;;;;;;;;;4986624;28;106509;-68
2022/01/26 07:10:24;;;;;;;153.57;41.67;;;;;;;;;;4990477;28;106025;-68
2022/01/26 07:12:50;;;;;;;146.98;40.30;;;;;;;;;;4969252;28;106398;-68
2022/01/26 07:21:23;;;;;;;150.68;41.10;;;;;;;;;;4962999;28;107429;-68
2022/01/26 07:23:50;;;;;;;150.68;40.15;;;;;;;;;;4960258;28;108089;-69
2022/01/26 07:26:17;;;;;;;154.90;40.35;;;;;;;;;;4984757;28;106273;-68
2022/01/26 07:28:43;;;;;;;151.27;41.15;;;;;;;;;;4986854;28;107075;-68
2022/01/26 07:31:10;;;;;;;147.85;42.08;;;;;;;;;;4978959;28;106161;-68
2022/01/26 07:33:38;;;;;;;155.95;42.95;;;;;;;;;;4989487;28;107230;-69
2022/01/26 07:36:05;;;;;;;158.95;42.42;;;;;;;;;;4966052;28;106219;-68
2022/01/26 07:38:31;;;;;;;149.75;43.08;;;;;;;;;;4967859;28;106866;-68
2022/01/26 07:40:58;;;;;;;150.57;42.35;;;;;;;;;;4970123;28;107569;-69
2022/01/26 07:43:25;;;;;;;153.02;40.50;;;;;;;;;;4986224;28;105992;-68
2022/01/26 07:45:51;;;;;;;157.02;43.20;;;;;;;;;;4968962;28;107001;-66
2022/01/26 07:48:18;;;;;;;151.20;41.42;;;;;;;;;;4967145;28;109051;-69
2022/01/26 07:50:45;;;;;;;149.57;40.22;;;;;;;;;;4989770;28;105991;-70
2022/01/26 07:53:15;;;;;;;143.68;40.85;;;;;;;;;;4980873;28;107439;-71
2022/01/26 07:55:42;;;;;;;160.73;40.30;;;;;;;;;;4990509;28;108690;-67
2022/01/26 07:58:09;;;;;;;157.00;42.70;;;;;;;;;;4988979;28;107870;-66
2022/01/26 08:00:37;;;;;;;158.23;40.67;;;;;;;;;;4986006;28;107656;-69
2022/01/26 08:03:03;;;;;;;156.00;41.38;;;;;;;;;;4988364;28;106106;-67
2022/01/26 08:05:30;;;;;;;145.63;39.22;;;;;;;;;;4986686;28;106888;-66
2022/01/26 08:07:56;;;;;;;145.10;39.33;;;;;;;;;;4978759;28;106806;-66
2022/01/26 08:10:23;;;;;;;146.90;40.35;;;;;;;;;;4979426;28;106314;-69
2022/01/26 08:12:49;;;;;;;143.70;38.47;;;;;;;;;;4971283;28;107135;-69
2022/01/26 08:15:22;;;;;;;146.65;41.00;;;;;;;;;;4982201;28;108303;-71
2022/01/26 08:17:48;;;;;;;142.05;38.38;;;;;;;;;;4975335;28;106382;-70
2022/01/26 08:20:15;;;;;;;140.98;39.35;;;;;;;;;;4962658;28;106846;-68
2022/01/26 08:22:41;;;;;;;136.18;38.28;;;;;;;;;;4989115;28;107642;-69
2022/01/26 08:25:08;;;;;;;138.13;39.15;;;;;;;;;;4986888;28;107308;-70
2022/01/26 08:27:40;;;;;;;129.50;37.58;;;;;;;;;;4979479;28;108865;-69
2022/01/26 08:30:11;;;;;;;126.35;38.28;;;;;;;;;;4988225;28;106684;-73
2022/01/26 08:32:38;;;;;;;121.68;37.78;;;;;;;;;;4987785;28;106619;-68
2022/01/26 08:35:04;;;;;;;121.72;37.20;;;;;;;;;;4988482;28;107266;-70
2022/01/26 08:37:31;;;;;;;118.45;36.88;;;;;;;;;;4984743;28;106473;-69
2022/01/26 08:39:58;;;;;;;107.28;36.00;;;;;;;;;;4988724;28;106646;-69
2022/01/26 08:42:24;;;;;;;110.13;35.25;;;;;;;;;;4988310;28;107541;-69
2022/01/26 08:44:51;;;;;;;98.32;35.40;;;;;;;;;;4970365;28;107423;-68
2022/01/26 08:47:17;;;;;;;92.03;32.72;;;;;;;;;;4985960;28;106863;-69
2022/01/26 08:49:44;;;;;;;102.57;35.13;;;;;;;;;;4964324;28;106014;-69
2022/01/26 08:52:10;;;;;;;90.32;31.95;;;;;;;;;;4984147;28;105677;-69
2022/01/26 08:54:37;;;;;;;90.82;32.58;;;;;;;;;;4987935;28;106366;-74
2022/01/26 08:57:03;;;;;;;98.50;31.58;;;;;;;;;;4970733;28;106053;-71
2022/01/26 08:59:30;;;;;;;82.75;28.80;;;;;;;;;;4986916;28;106727;-70
2022/01/26 09:01:56;;;;;;;89.40;29.52;;;;;;;;;;4970141;28;106610;-70
2022/01/26 09:04:23;;;;;;;88.75;30.65;;;;;;;;;;4969522;28;108575;-70
2022/01/26 09:06:54;;;;;;;80.95;29.25;;;;;;;;;;4988748;28;106326;-70
2022/01/26 09:09:21;;;;;;;91.13;29.30;;;;;;;;;;4983679;28;106078;-70
2022/01/26 09:11:49;;;;;;;83.45;28.08;;;;;;;;;;4987149;28;106095;-70
2022/01/26 09:14:22;;;;;;;82.53;29.67;;;;;;;;;;4986491;28;106895;-73
2022/01/26 09:16:51;;;;;;;77.55;27.90;;;;;;;;;;4963415;28;107419;-72
2022/01/26 09:21:51;;;;;;;84.07;28.75;;;;;;;;;;4986003;28;106327;-70
2022/01/26 09:24:18;;;;;;;79.30;26.65;;;;;;;;;;4983104;28;105719;-69
2022/01/26 09:26:45;;;;;;;81.82;28.23;;;;;;;;;;4986443;28;106518;-69
2022/01/26 09:29:11;;;;;;;78.13;26.05;;;;;;;;;;4986699;28;106552;-69
2022/01/26 09:31:38;;;;;;;82.85;27.00;;;;;;;;;;4987736;28;106080;-70
2022/01/26 09:34:05;;;;;;;78.13;28.48;;;;;;;;;;4970672;28;110275;-70
2022/01/26 09:36:31;;;;;;;82.75;28.13;;;;;;;;;;4989011;28;106017;-69
2022/01/26 09:38:57;;;;;;;87.10;27.90;;;;;;;;;;4988962;28;108264;-71
2022/01/26 09:41:24;;;;;;;71.00;26.75;;;;;;;;;;4986388;28;108223;-69
2022/01/26 09:43:51;;;;;;;72.60;25.42;;;;;;;;;;4982481;28;106417;-71
2022/01/26 09:46:17;;;;;;;70.22;26.52;;;;;;;;;;4981882;28;106647;-68
2022/01/26 09:48:44;;;;;;;81.97;27.13;;;;;;;;;;4965156;28;107421;-69
2022/01/26 09:51:12;;;;;;;74.82;25.77;;;;;;;;;;4984797;28;107153;-70
2022/01/26 09:53:38;;;;;;;85.63;29.27;;;;;;;;;;4976420;28;108936;-68
2022/01/26 09:56:05;;;;;;;78.28;26.98;;;;;;;;;;4984037;28;107048;-72
2022/01/26 09:58:32;;;;;;;79.57;26.15;;;;;;;;;;4986980;28;106534;-69
2022/01/26 10:01:03;;;;;;;78.45;27.38;;;;;;;;;;4987802;28;107929;-68
2022/01/26 10:03:33;;;;;;;77.00;25.38;;;;;;;;;;4986052;28;106167;-68
2022/01/26 10:06:00;;;;;;;82.25;26.33;;;;;;;;;;4990454;28;106347;-68
2022/01/26 10:08:57;;;;;;;80.45;26.45;;;;;;;;;;4987996;28;107005;-68
2022/01/26 10:17:25;;;;;;;78.75;26.92;;;;;;;;;;4965328;28;106186;-69
2022/01/26 10:19:59;;;;;;;83.07;25.88;;;;;;;;;;4985030;28;106843;-70
2022/01/26 10:22:26;;;;;;;74.97;24.70;;;;;;;;;;4968713;28;109198;-70
2022/01/26 10:25:06;;;;;;;72.50;25.20;;;;;;;;;;4985639;28;106694;-70
2022/01/26 10:27:53;;;;;;;70.18;24.58;;;;;;;;;;4973370;28;106951;-70
2022/01/26 10:30:20;;;;;;;76.72;25.70;;;;;;;;;;4990882;28;107585;-69
2022/01/26 10:32:47;;;;;;;75.55;25.92;;;;;;;;;;4987230;28;107522;-68
2022/01/26 10:35:15;;;;;;;79.38;25.40;;;;;;;;;;4960377;28;109094;-70
2022/01/26 10:37:49;;;;;;;71.82;24.50;;;;;;;;;;4960680;28;107508;-72
2022/01/26 10:40:22;;;;;;;78.65;24.23;;;;;;;;;;4987567;28;106598;-70
2022/01/26 10:43:00;;;;;;;73.57;25.85;;;;;;;;;;4987598;28;106555;-70
2022/01/26 10:45:32;;;;;;;82.55;25.77;;;;;;;;;;4977489;28;107666;-71
2022/01/26 10:48:16;;;;;;;70.43;24.35;;;;;;;;;;4982667;28;107133;-68
2022/01/26 10:51:09;;;;;;;73.20;24.27;;;;;;;;;;4986130;28;107411;-70
2022/01/26 10:53:39;;;;;;;68.05;23.33;;;;;;;;;;4965991;28;107585;-69
2022/01/26 10:56:06;;;;;;;73.03;23.88;;;;;;;;;;4964996;28;107363;-70
2022/01/26 10:58:32;;;;;;;71.93;22.65;;;;;;;;;;4970495;28;106608;-70
2022/01/26 11:00:59;;;;;;;71.90;23.13;;;;;;;;;;4981196;28;107662;-71
2022/01/26 11:03:25;;;;;;;71.78;23.98;;;;;;;;;;4978032;28;107424;-70
2022/01/26 11:05:53;;;;;;;73.28;22.75;;;;;;;;;;4961609;28;106408;-70
2022/01/26 11:08:22;;;;;;;68.88;24.20;;;;;;;;;;4983247;28;107117;-71
2022/01/26 11:10:48;;;;;;;83.07;24.30;;;;;;;;;;4986232;28;107465;-71
2022/01/26 11:13:26;;;;;;;78.53;22.92;;;;;;;;;;4969819;28;106083;-71
2022/01/26 11:15:53;;;;;;;70.20;22.55;;;;;;;;;;4983094;28;106190;-70
2022/01/26 11:18:22;;;;;;;67.70;22.70;;;;;;;;;;4970890;28;106941;-69
2022/01/26 11:20:51;;;;;;;68.43;21.85;;;;;;;;;;4973168;28;107417;-69
2022/01/26 11:23:19;;;;;;;63.60;21.45;;;;;;;;;;4989488;28;107535;-69
2022/01/26 11:25:46;;;;;;;67.15;22.08;;;;;;;;;;4989905;28;106434;-69
2022/01/26 11:28:14;;;;;;;63.25;20.63;;;;;;;;;;4990540;28;106777;-69
2022/01/26 11:30:45;;;;;;;68.50;23.85;;;;;;;;;;4991256;28;106330;-69
2022/01/26 11:33:21;;;;;;;64.57;21.67;;;;;;;;;;4968362;28;107582;-68
2022/01/26 11:35:50;;;;;;;69.15;21.90;;;;;;;;;;4992976;28;107411;-69
2022/01/26 11:46:55;;;;;;;77.30;22.70;;;;;;;;;;4978084;28;107091;-70
2022/01/26 11:49:25;;;;;;;67.70;21.90;;;;;;;;;;4987087;28;107508;-70
2022/01/26 11:51:53;;;;;;;69.20;22.90;;;;;;;;;;4980925;28;107445;-69
2022/01/26 11:54:22;;;;;;;64.90;23.23;;;;;;;;;;4976694;28;106230;-70
2022/01/26 11:57:01;;;;;;;64.13;23.20;;;;;;;;;;4981146;28;106768;-70
2022/01/26 11:59:30;;;;;;;61.95;22.15;;;;;;;;;;4990437;28;106781;-70
2022/01/26 12:02:04;;;;;;;72.05;23.25;;;;;;;;;;4982359;28;107412;-71
2022/01/26 12:04:33;;;;;;;69.95;22.58;;;;;;;;;;4987970;28;108078;-71
2022/01/26 12:07:10;;;;;;;68.00;22.88;;;;;;;;;;4989135;28;106367;-70
2022/01/26 12:09:40;;;;;;;74.03;24.80;;;;;;;;;;4990407;28;106616;-70
2022/01/26 12:12:08;;;;;;;69.93;24.27;;;;;;;;;;4989272;28;107883;-68
2022/01/26 12:14:35;;;;;;;67.28;24.27;;;;;;;;;;4987792;28;106672;-69
2022/01/26 12:17:05;;;;;;;66.63;24.15;;;;;;;;;;4988203;28;106887;-69
2022/01/26 12:19:46;;;;;;;68.60;23.10;;;;;;;;;;4989935;28;106231;-69
2022/01/26 12:36:12;;;;;;;62.58;22.88;;;;;;;;;;4986288;28;108611;-69
2022/01/26 12:38:44;;;;;;;70.85;24.00;;;;;;;;;;4965420;28;109506;-68
2022/01/26 12:43:45;;;;;;;70.63;23.75;;;;;;;;;;4988588;28;106197;-69
2022/01/26 12:46:15;;;;;;;62.13;23.05;;;;;;;;;;4967848;28;108554;-69
2022/01/26 12:48:47;;;;;;;63.15;21.60;;;;;;;;;;4981192;28;107023;-69
2022/01/26 12:51:13;;;;;;;61.80;22.13;;;;;;;;;;4963315;28;108672;-69
2022/01/26 12:53:40;;;;;;;57.85;22.05;;;;;;;;;;4961823;28;107733;-69
2022/01/26 12:56:09;;;;;;;68.38;22.02;;;;;;;;;;4987786;28;108118;-73
2022/01/26 12:58:37;;;;;;;62.45;22.73;;;;;;;;;;4986194;28;107167;-69
2022/01/26 13:01:06;;;;;;;64.70;22.33;;;;;;;;;;4982307;28;106606;-71
2022/01/26 13:03:34;;;;;;;61.90;21.40;;;;;;;;;;4985362;28;107511;-69
2022/01/26 13:06:07;;;;;;;64.75;21.45;;;;;;;;;;4991615;28;107501;-68
2022/01/26 13:09:00;;;;;;;59.15;20.80;;;;;;;;;;4989809;28;106834;-69
2022/01/26 13:11:30;;;;;;;57.80;21.10;;;;;;;;;;4977063;28;109162;-71
2022/01/26 13:14:03;;;;;;;63.28;21.63;;;;;;;;;;4989194;28;107329;-69
2022/01/26 13:16:36;;;;;;;70.82;21.98;;;;;;;;;;4967860;28;106716;-69
2022/01/26 13:19:32;;;;;;;60.63;20.27;;;;;;;;;;4974710;28;109048;-72
2022/01/26 13:22:35;;;;;;;63.42;20.70;;;;;;;;;;4981982;28;106190;-69
2022/01/26 13:28:17;;;;;;;62.45;20.00;;;;;;;;;;4989610;28;105884;-69
2022/01/26 13:34:00;;;;;;;63.38;20.98;;;;;;;;;;4960863;28;106815;-67
2022/01/26 13:36:40;;;;;;;58.25;20.85;;;;;;;;;;4972933;28;107402;-70
2022/01/26 13:39:17;;;;;;;59.10;20.95;;;;;;;;;;4987268;28;105932;-70
2022/01/26 13:44:47;;;;;;;60.70;20.20;;;;;;;;;;4964478;28;110254;-71
2022/01/26 13:50:18;;;;;;;58.50;20.17;;;;;;;;;;4985220;28;106487;-71
2022/01/26 13:53:02;;;;;;;;;;;;;;;;;;4984730;28;110254;-68
2022/01/26 13:58:20;;;;;;;56.05;20.08;;;;;;;;;;4969215;28;108219;-69
2022/01/26 14:00:57;;;;;;;59.20;20.33;;;;;;;;;;4982673;28;107459;-70
2022/01/26 14:03:28;;;;;;;54.72;21.48;;;;;;;;;;4983098;28;106124;-69
2022/01/26 14:05:56;;;;;;;56.05;19.30;;;;;;;;;;4986020;28;107657;-69
2022/01/26 14:08:22;;;;;;;54.92;19.30;;;;;;;;;;4984415;28;107400;-69
2022/01/26 14:10:49;;;;;;;53.65;19.75;;;;;;;;;;4970404;28;107180;-69
2022/01/26 14:13:20;;;;;;;57.38;20.40;;;;;;;;;;4986440;28;108153;-70
2022/01/26 14:15:50;;;;;;;53.53;20.50;;;;;;;;;;4987817;28;107828;-69
2022/01/26 14:25:52;;;;;;;56.85;20.48;;;;;;;;;;4982521;28;107482;-69
2022/01/26 14:28:20;;;;;;;;;;;;;;;;;;4976827;28;108667;-69
2022/01/26 14:31:05;;;;;;;58.03;19.30;;;;;;;;;;4986661;28;124237;-69
2022/01/26 14:54:56;;;;;;;45.35;17.85;;;;;;;;;;4982055;28;106479;-68
2022/01/26 15:20:26;;;;;;;60.28;21.95;;;;;;;;;;4978076;28;106166;-69
2022/01/26 15:35:52;;;;;;;62.25;23.45;;;;;;;;;;4984415;28;106080;-70
2022/01/26 15:41:44;;;;;;;57.97;22.83;;;;;;;;;;4952428;28;108588;-70
2022/01/26 15:57:46;;;;;;;64.00;25.70;;;;;;;;;;4983183;28;108752;-69
2022/01/26 16:12:38;;;;;;;67.63;27.05;;;;;;;;;;4980353;28;107828;-69
2022/01/26 16:17:10;;;;;;;74.15;26.92;;;;;;;;;;4987952;28;106408;-69
2022/01/26 16:38:18;;;;;;;83.32;30.95;;;;;;;;;;4987005;28;106295;-69
2022/01/26 16:52:25;;;;;;;78.78;28.92;;;;;;;;;;4889624;28;108648;-70
2022/01/26 17:11:09;;;;;;;86.15;30.77;;;;;;;;;;4980285;28;107708;-68
2022/01/26 17:34:37;;;;;;;83.38;31.40;;;;;;;;;;4987613;28;105980;-68
2022/01/26 17:43:15;;;;;;;85.00;31.52;;;;;;;;;;4965824;28;107343;-68
2022/01/26 18:15:56;;;;;;;83.88;31.48;;;;;;;;;;4984205;28;107269;-68
2022/01/26 18:51:30;;;;;;;74.32;29.00;;;;;;;;;;4962054;28;109380;-69
2022/01/26 18:53:56;;;;;;;70.70;28.40;;;;;;;;;;4985573;28;106958;-69
2022/01/26 18:56:24;;;;;;;78.15;27.20;;;;;;;;;;4984488;28;106128;-69
2022/01/26 18:58:50;;;;;;;76.28;28.23;;;;;;;;;;4980263;28;106732;-68
2022/01/26 19:01:17;;;;;;;73.07;26.92;;;;;;;;;;4976878;28;106370;-69
2022/01/26 19:03:43;;;;;;;77.50;27.73;;;;;;;;;;4984478;28;106432;-69
2022/01/26 19:06:10;;;;;;;77.43;27.65;;;;;;;;;;4984037;28;106414;-69
2022/01/26 19:08:39;;;;;;;75.05;27.67;;;;;;;;;;4985515;28;106904;-70
2022/01/26 19:11:08;;;;;;;73.63;28.17;;;;;;;;;;4963583;28;106323;-69
2022/01/26 19:13:35;;;;;;;74.18;27.35;;;;;;;;;;4960431;28;106398;-69
2022/01/26 19:16:08;;;;;;;70.85;27.98;;;;;;;;;;4976379;28;106869;-69
2022/01/26 19:24:20;;;;;;;76.78;27.85;;;;;;;;;;4986330;28;106220;-71
2022/01/26 19:26:52;;;;;;;72.93;27.08;;;;;;;;;;4964365;28;109006;-69
2022/01/26 19:40:56;;;;;;;81.53;27.10;;;;;;;;;;4974047;28;107303;-69
2022/01/26 19:46:03;;;;;;;76.55;27.42;;;;;;;;;;4988267;28;106375;-69
2022/01/26 19:51:15;;;;;;;83.50;28.50;;;;;;;;;;4986810;28;105929;-68
2022/01/26 19:53:42;;;;;;;77.22;27.38;;;;;;;;;;4984480;28;107176;-68
2022/01/26 19:56:08;;;;;;;80.70;28.50;;;;;;;;;;4972411;28;107459;-70
2022/01/26 19:58:35;;;;;;;72.50;26.83;;;;;;;;;;4990367;28;107436;-69
2022/01/26 20:01:02;;;;;;;86.95;29.70;;;;;;;;;;4985268;28;107497;-69
2022/01/26 20:03:30;;;;;;;73.20;26.45;;;;;;;;;;4983445;28;106755;-69
2022/01/26 20:05:56;;;;;;;73.97;26.52;;;;;;;;;;4984462;28;106344;-69
2022/01/26 20:11:07;;;;;;;70.25;25.55;;;;;;;;;;4984879;28;106402;-69
2022/01/26 20:13:39;;;;;;;74.40;25.95;;;;;;;;;;4971390;28;109011;-70
2022/01/26 20:16:07;;;;;;;81.13;27.35;;;;;;;;;;4982807;28;106455;-69
2022/01/26 20:18:34;;;;;;;78.57;26.95;;;;;;;;;;4989337;28;106772;-69
2022/01/26 20:21:02;;;;;;;78.93;26.83;;;;;;;;;;4986191;28;106802;-68
2022/01/26 20:23:33;;;;;;;69.53;26.15;;;;;;;;;;4967688;28;107597;-71
2022/01/26 20:26:01;;;;;;;71.55;25.50;;;;;;;;;;4988963;28;106254;-68
2022/01/26 20:28:30;;;;;;;78.53;27.50;;;;;;;;;;4987566;28;108446;-69
2022/01/26 20:30:58;;;;;;;75.60;26.30;;;;;;;;;;4964553;28;108021;-68
2022/01/26 20:33:26;;;;;;;71.80;24.95;;;;;;;;;;4987373;28;106747;-68
2022/01/26 20:35:52;;;;;;;68.22;24.98;;;;;;;;;;4970363;28;106314;-68
2022/01/26 20:38:19;;;;;;;74.40;26.63;;;;;;;;;;4987001;28;106682;-69
2022/01/26 20:40:46;;;;;;;70.05;25.75;;;;;;;;;;4970571;28;107473;-68
2022/01/26 20:43:12;;;;;;;72.55;25.30;;;;;;;;;;4986422;28;107362;-68